Eizo Maru — JD2944 — position and weather

sailwx.info

Track history (hours):
 
Tides and Currents Weather Stations Pressure Air Temp Water Temp Dewpoint Dewpoint Depression Visibility Wind Speed Wind Dir Waves Ship Positions

Eizo Maru

Last reported at 2016-Nov-29 09:24 UTC. Time now 2016-Dec-02 20:09 UTC.
Position N 34°07' E 135°03'.

Length 80 m; draft 4.2 m.

Type: Tanker. MMSI: 431000976.

Date/timePositionNaut miles runAvg speedWind from/ knotsBaromVisibWave heightAir tempDewpointWater temp
2016-Nov-29 09:24N 34°07' E 135°03'3 0.4
2016-Nov-29 01:33N 34°07' E 135°07'239 5.5
2016-Nov-27 06:14N 35°14' E 139°46'812.3
2016-Nov-27 05:33N 35°22' E 139°42'16 0.9
2016-Nov-26 11:32N 35°32' E 139°57'9 9.2
2016-Nov-26 10:33N 35°31' E 139°46'0 0.0
2016-Nov-26 09:23N 35°31' E 139°46'0 0.0
2016-Nov-26 08:32N 35°31' E 139°46'0 0.0
2016-Nov-26 07:32N 35°31' E 139°46'0 0.0
2016-Nov-26 06:32N 35°31' E 139°46'3 3.1
2016-Nov-26 05:31N 35°30' E 139°50'0 0.0
2016-Nov-26 04:28N 35°30' E 139°50'2 1.8
2016-Nov-26 03:33N 35°31' E 139°52'6 1.0
2016-Nov-25 21:30N 35°31' E 139°59'2 0.3
2016-Nov-25 15:27N 35°31' E 139°57'910.2
2016-Nov-25 14:33N 35°32' E 139°46'0 0.0
2016-Nov-25 09:34N 35°31' E 139°46'3 3.1
2016-Nov-25 08:29N 35°29' E 139°48'0 0.1
2016-Nov-25 07:32N 35°29' E 139°48'0 0.0
2016-Nov-25 06:23N 35°29' E 139°48'0 0.1
2016-Nov-25 05:32N 35°29' E 139°48'0 0.1
2016-Nov-25 04:32N 35°29' E 139°48'0 0.0
2016-Nov-25 03:32N 35°29' E 139°48'0 0.0
2016-Nov-25 02:29N 35°29' E 139°48'0 0.1
2016-Nov-25 01:32N 35°29' E 139°48'0 0.0
2016-Nov-25 00:32N 35°29' E 139°48'0 0.0
2016-Nov-24 23:32N 35°29' E 139°48'0 0.0
2016-Nov-24 22:32N 35°29' E 139°48'0 0.0
2016-Nov-24 21:32N 35°29' E 139°48'0 0.0
2016-Nov-24 20:32N 35°29' E 139°48'0 0.0
2016-Nov-24 19:32N 35°29' E 139°48'0 0.0
2016-Nov-24 18:32N 35°29' E 139°48'0 0.0
2016-Nov-24 17:32N 35°29' E 139°48'0 0.0
2016-Nov-24 16:32N 35°29' E 139°48'0 0.0
2016-Nov-24 15:32N 35°29' E 139°48'2 2.5
2016-Nov-24 14:33N 35°31' E 139°46'0 0.0
2016-Nov-24 11:07N 35°31' E 139°46'2 3.8
2016-Nov-24 10:33N 35°30' E 139°49'6 5.6
2016-Nov-24 09:33N 35°31' E 139°56'3 1.1
2016-Nov-24 07:13N 35°32' E 139°59'0 0.0
2016-Nov-24 06:11N 35°32' E 139°59'0 0.0
2016-Nov-24 05:17N 35°32' E 139°59'0 0.0
2016-Nov-24 03:33N 35°32' E 139°59'5 0.3
2016-Nov-23 10:28N 35°31' E 139°53'5 5.8
2016-Nov-23 09:32N 35°31' E 139°46'0 0.0
2016-Nov-23 08:32N 35°31' E 139°46'0 0.0
2016-Nov-23 07:26N 35°31' E 139°46'0 0.0
2016-Nov-23 06:22N 35°31' E 139°46'2 0.9
2016-Nov-23 03:32N 35°29' E 139°48'0 0.0
2016-Nov-23 02:32N 35°29' E 139°48'0 0.0
2016-Nov-23 00:32N 35°28' E 139°48'0 0.0
2016-Nov-22 23:32N 35°28' E 139°48'0 0.0
2016-Nov-22 22:32N 35°28' E 139°48'0 0.0
2016-Nov-22 20:29N 35°28' E 139°48'0 0.0
2016-Nov-22 19:29N 35°28' E 139°48'0 0.0
2016-Nov-22 17:32N 35°29' E 139°48'0 0.1
2016-Nov-22 16:32N 35°29' E 139°48'3 0.5
2016-Nov-22 10:34N 35°31' E 139°51'0 0.1
2016-Nov-22 09:32N 35°31' E 139°51'0 0.0
2016-Nov-22 08:32N 35°31' E 139°51'0 0.1
2016-Nov-22 07:29N 35°31' E 139°51'0 0.0
2016-Nov-22 05:29N 35°31' E 139°51'0 0.1
2016-Nov-22 04:29N 35°31' E 139°51'10 0.7
2016-Nov-21 14:03N 35°31' E 140°02'13 0.9
2016-Nov-20 22:33N 35°30' E 139°46'0 0.0
2016-Nov-20 12:26N 35°30' E 139°45'0 0.0
2016-Nov-19 22:13N 35°30' E 139°45'4 2.3
2016-Nov-19 20:32N 35°30' E 139°50'0 0.0
2016-Nov-19 19:29N 35°30' E 139°50'3 1.6
2016-Nov-19 17:34N 35°31' E 139°46'0 0.0
2016-Nov-19 16:28N 35°31' E 139°46'0 0.0
2016-Nov-19 14:31N 35°31' E 139°46'0 0.0
2016-Nov-19 11:31N 35°31' E 139°46'3 1.6
2016-Nov-19 09:33N 35°31' E 139°50'  
Track history (hours):
 
Tides and Currents Weather Stations Pressure Air Temp Water Temp Dewpoint Dewpoint Depression Visibility Wind Speed Wind Dir Waves Ship Positions

Eizo Maru

Last reported at 2016-Nov-29 09:24 UTC. Time now 2016-Dec-02 20:09 UTC.
Position N 34°07' E 135°03'.

Length 80 m; draft 4.2 m.

Type: Tanker. MMSI: 431000976.

Date/timePositionNaut miles runAvg speedWind from/ knotsBaromVisibWave heightAir tempDewpointWater temp
2016-Nov-29 09:24N 34°07' E 135°03'3 0.4
2016-Nov-29 01:33N 34°07' E 135°07'239 5.5
2016-Nov-27 06:14N 35°14' E 139°46'812.3
2016-Nov-27 05:33N 35°22' E 139°42'16 0.9
2016-Nov-26 11:32N 35°32' E 139°57'9 9.2
2016-Nov-26 10:33N 35°31' E 139°46'0 0.0
2016-Nov-26 09:23N 35°31' E 139°46'0 0.0
2016-Nov-26 08:32N 35°31' E 139°46'0 0.0
2016-Nov-26 07:32N 35°31' E 139°46'0 0.0
2016-Nov-26 06:32N 35°31' E 139°46'3 3.1
2016-Nov-26 05:31N 35°30' E 139°50'0 0.0
2016-Nov-26 04:28N 35°30' E 139°50'2 1.8
2016-Nov-26 03:33N 35°31' E 139°52'6 1.0
2016-Nov-25 21:30N 35°31' E 139°59'2 0.3
2016-Nov-25 15:27N 35°31' E 139°57'910.2
2016-Nov-25 14:33N 35°32' E 139°46'0 0.0
2016-Nov-25 09:34N 35°31' E 139°46'3 3.1
2016-Nov-25 08:29N 35°29' E 139°48'0 0.1
2016-Nov-25 07:32N 35°29' E 139°48'0 0.0
2016-Nov-25 06:23N 35°29' E 139°48'0 0.1
2016-Nov-25 05:32N 35°29' E 139°48'0 0.1
2016-Nov-25 04:32N 35°29' E 139°48'0 0.0
2016-Nov-25 03:32N 35°29' E 139°48'0 0.0
2016-Nov-25 02:29N 35°29' E 139°48'0 0.1
2016-Nov-25 01:32N 35°29' E 139°48'0 0.0
2016-Nov-25 00:32N 35°29' E 139°48'0 0.0
2016-Nov-24 23:32N 35°29' E 139°48'0 0.0
2016-Nov-24 22:32N 35°29' E 139°48'0 0.0
2016-Nov-24 21:32N 35°29' E 139°48'0 0.0
2016-Nov-24 20:32N 35°29' E 139°48'0 0.0
2016-Nov-24 19:32N 35°29' E 139°48'0 0.0
2016-Nov-24 18:32N 35°29' E 139°48'0 0.0
2016-Nov-24 17:32N 35°29' E 139°48'0 0.0
2016-Nov-24 16:32N 35°29' E 139°48'0 0.0
2016-Nov-24 15:32N 35°29' E 139°48'2 2.5
2016-Nov-24 14:33N 35°31' E 139°46'0 0.0
2016-Nov-24 11:07N 35°31' E 139°46'2 3.8
2016-Nov-24 10:33N 35°30' E 139°49'6 5.6
2016-Nov-24 09:33N 35°31' E 139°56'3 1.1
2016-Nov-24 07:13N 35°32' E 139°59'0 0.0
2016-Nov-24 06:11N 35°32' E 139°59'0 0.0
2016-Nov-24 05:17N 35°32' E 139°59'0 0.0
2016-Nov-24 03:33N 35°32' E 139°59'5 0.3
2016-Nov-23 10:28N 35°31' E 139°53'5 5.8
2016-Nov-23 09:32N 35°31' E 139°46'0 0.0
2016-Nov-23 08:32N 35°31' E 139°46'0 0.0
2016-Nov-23 07:26N 35°31' E 139°46'0 0.0
2016-Nov-23 06:22N 35°31' E 139°46'2 0.9
2016-Nov-23 03:32N 35°29' E 139°48'0 0.0
2016-Nov-23 02:32N 35°29' E 139°48'0 0.0
2016-Nov-23 00:32N 35°28' E 139°48'0 0.0
2016-Nov-22 23:32N 35°28' E 139°48'0 0.0
2016-Nov-22 22:32N 35°28' E 139°48'0 0.0
2016-Nov-22 20:29N 35°28' E 139°48'0 0.0
2016-Nov-22 19:29N 35°28' E 139°48'0 0.0
2016-Nov-22 17:32N 35°29' E 139°48'0 0.1
2016-Nov-22 16:32N 35°29' E 139°48'3 0.5
2016-Nov-22 10:34N 35°31' E 139°51'0 0.1
2016-Nov-22 09:32N 35°31' E 139°51'0 0.0
2016-Nov-22 08:32N 35°31' E 139°51'0 0.1
2016-Nov-22 07:29N 35°31' E 139°51'0 0.0
2016-Nov-22 05:29N 35°31' E 139°51'0 0.1
2016-Nov-22 04:29N 35°31' E 139°51'10 0.7
2016-Nov-21 14:03N 35°31' E 140°02'13 0.9
2016-Nov-20 22:33N 35°30' E 139°46'0 0.0
2016-Nov-20 12:26N 35°30' E 139°45'0 0.0
2016-Nov-19 22:13N 35°30' E 139°45'4 2.3
2016-Nov-19 20:32N 35°30' E 139°50'0 0.0
2016-Nov-19 19:29N 35°30' E 139°50'3 1.6
2016-Nov-19 17:34N 35°31' E 139°46'0 0.0
2016-Nov-19 16:28N 35°31' E 139°46'0 0.0
2016-Nov-19 14:31N 35°31' E 139°46'0 0.0
2016-Nov-19 11:31N 35°31' E 139°46'3 1.6
2016-Nov-19 09:33N 35°31' E 139°50'  

Dump ship's entire track history